sensor_id;sensor_type;location;lat;lon;timestamp;temperature;humidity
13970;DHT22;7057;49.984;8.404;2022-11-15T00:00:03;9.70;99.90
13970;DHT22;7057;49.984;8.404;2022-11-15T00:02:30;9.60;99.90
13970;DHT22;7057;49.984;8.404;2022-11-15T00:04:57;9.50;99.90
13970;DHT22;7057;49.984;8.404;2022-11-15T00:07:24;9.60;99.90
13970;DHT22;7057;49.984;8.404;2022-11-15T00:09:51;9.70;99.90
13970;DHT22;7057;49.984;8.404;2022-11-15T00:12:18;9.70;99.90
13970;DHT22;7057;49.984;8.404;2022-11-15T00:14:47;9.70;99.90
13970;DHT22;7057;49.984;8.404;2022-11-15T00:17:14;9.70;99.90
13970;DHT22;7057;49.984;8.404;2022-11-15T00:19:41;9.70;99.90
13970;DHT22;7057;49.984;8.404;2022-11-15T00:22:08;9.70;99.90
13970;DHT22;7057;49.984;8.404;2022-11-15T00:24:36;9.70;99.90
13970;DHT22;7057;49.984;8.404;2022-11-15T00:27:03;9.80;99.90
13970;DHT22;7057;49.984;8.404;2022-11-15T00:29:30;9.80;99.90
13970;DHT22;7057;49.984;8.404;2022-11-15T00:31:58;10.00;99.90
13970;DHT22;7057;49.984;8.404;2022-11-15T00:34:25;10.00;99.90
13970;DHT22;7057;49.984;8.404;2022-11-15T00:36:53;10.10;99.90
13970;DHT22;7057;49.984;8.404;2022-11-15T00:39:20;10.10;99.90
13970;DHT22;7057;49.984;8.404;2022-11-15T00:41:47;10.10;99.90
13970;DHT22;7057;49.984;8.404;2022-11-15T00:44:14;10.10;99.90
13970;DHT22;7057;49.984;8.404;2022-11-15T00:46:41;10.10;99.90
13970;DHT22;7057;49.984;8.404;2022-11-15T00:49:10;10.20;99.90
13970;DHT22;7057;49.984;8.404;2022-11-15T00:51:37;10.20;99.90
13970;DHT22;7057;49.984;8.404;2022-11-15T00:54:04;10.20;99.90
13970;DHT22;7057;49.984;8.404;2022-11-15T00:56:31;10.20;99.90
13970;DHT22;7057;49.984;8.404;2022-11-15T00:58:59;9.90;99.90
13970;DHT22;7057;49.984;8.404;2022-11-15T01:01:26;9.90;99.90
13970;DHT22;7057;49.984;8.404;2022-11-15T01:03:53;9.90;99.90
13970;DHT22;7057;49.984;8.404;2022-11-15T01:06:22;9.90;99.90
13970;DHT22;7057;49.984;8.404;2022-11-15T01:08:49;9.90;99.90
13970;DHT22;7057;49.984;8.404;2022-11-15T01:11:16;10.00;99.90
13970;DHT22;7057;49.984;8.404;2022-11-15T01:13:43;10.00;99.90
13970;DHT22;7057;49.984;8.404;2022-11-15T01:16:12;10.00;99.90
13970;DHT22;7057;49.984;8.404;2022-11-15T01:18:40;9.90;99.90
13970;DHT22;7057;49.984;8.404;2022-11-15T01:21:09;9.90;99.90
13970;DHT22;7057;49.984;8.404;2022-11-15T01:23:38;9.90;99.90
13970;DHT22;7057;49.984;8.404;2022-11-15T01:26:07;9.80;99.90
13970;DHT22;7057;49.984;8.404;2022-11-15T01:28:37;9.90;99.90
13970;DHT22;7057;49.984;8.404;2022-11-15T01:31:06;9.70;99.90
13970;DHT22;7057;49.984;8.404;2022-11-15T01:33:35;9.70;99.90
13970;DHT22;7057;49.984;8.404;2022-11-15T01:36:04;9.80;99.90
13970;DHT22;7057;49.984;8.404;2022-11-15T01:38:31;9.70;99.90
13970;DHT22;7057;49.984;8.404;2022-11-15T01:41:00;9.80;99.90
13970;DHT22;7057;49.984;8.404;2022-11-15T01:43:29;9.80;99.90
13970;DHT22;7057;49.984;8.404;2022-11-15T01:46:02;9.90;99.90
13970;DHT22;7057;49.984;8.404;2022-11-15T01:48:33;9.90;99.90
13970;DHT22;7057;49.984;8.404;2022-11-15T01:51:02;9.90;99.90
13970;DHT22;7057;49.984;8.404;2022-11-15T01:53:32;10.00;99.90
13970;DHT22;7057;49.984;8.404;2022-11-15T01:56:05;9.80;99.90
13970;DHT22;7057;49.984;8.404;2022-11-15T01:58:34;10.00;99.90
13970;DHT22;7057;49.984;8.404;2022-11-15T02:01:02;10.10;99.90
13970;DHT22;7057;49.984;8.404;2022-11-15T02:03:34;10.10;99.90
13970;DHT22;7057;49.984;8.404;2022-11-15T02:06:04;10.00;99.90
13970;DHT22;7057;49.984;8.404;2022-11-15T02:08:32;9.90;99.90
13970;DHT22;7057;49.984;8.404;2022-11-15T02:10:59;9.90;99.90
13970;DHT22;7057;49.984;8.404;2022-11-15T02:13:27;9.90;99.90
13970;DHT22;7057;49.984;8.404;2022-11-15T02:16:05;9.90;99.90
13970;DHT22;7057;49.984;8.404;2022-11-15T02:18:37;9.90;99.90
13970;DHT22;7057;49.984;8.404;2022-11-15T02:21:16;9.80;99.90
13970;DHT22;7057;49.984;8.404;2022-11-15T02:24:06;9.80;99.90
13970;DHT22;7057;49.984;8.404;2022-11-15T02:29:53;9.90;99.90
13970;DHT22;7057;49.984;8.404;2022-11-15T02:32:32;9.80;99.90
13970;DHT22;7057;49.984;8.404;2022-11-15T02:35:08;9.80;99.90
13970;DHT22;7057;49.984;8.404;2022-11-15T02:37:44;9.80;99.90
13970;DHT22;7057;49.984;8.404;2022-11-15T02:40:19;9.90;99.90
13970;DHT22;7057;49.984;8.404;2022-11-15T02:42:53;9.90;99.90
13970;DHT22;7057;49.984;8.404;2022-11-15T02:45:44;9.90;99.90
13970;DHT22;7057;49.984;8.404;2022-11-15T02:48:15;9.80;99.90
13970;DHT22;7057;49.984;8.404;2022-11-15T02:50:44;9.70;99.90
13970;DHT22;7057;49.984;8.404;2022-11-15T02:53:12;9.70;99.90
13970;DHT22;7057;49.984;8.404;2022-11-15T02:55:43;9.80;99.90
13970;DHT22;7057;49.984;8.404;2022-11-15T03:01:10;9.90;99.90
13970;DHT22;7057;49.984;8.404;2022-11-15T03:03:53;9.90;99.90
13970;DHT22;7057;49.984;8.404;2022-11-15T03:06:29;9.90;99.90
13970;DHT22;7057;49.984;8.404;2022-11-15T03:09:04;9.90;99.90
13970;DHT22;7057;49.984;8.404;2022-11-15T03:11:35;9.80;99.90
13970;DHT22;7057;49.984;8.404;2022-11-15T03:14:12;9.80;99.90
13970;DHT22;7057;49.984;8.404;2022-11-15T03:16:44;9.80;99.90
13970;DHT22;7057;49.984;8.404;2022-11-15T03:19:19;9.80;99.90
13970;DHT22;7057;49.984;8.404;2022-11-15T03:21:51;9.70;99.90
13970;DHT22;7057;49.984;8.404;2022-11-15T03:24:20;9.70;99.90
13970;DHT22;7057;49.984;8.404;2022-11-15T03:26:48;9.80;99.90
13970;DHT22;7057;49.984;8.404;2022-11-15T03:29:21;9.80;99.90
13970;DHT22;7057;49.984;8.404;2022-11-15T03:31:53;9.80;99.90
13970;DHT22;7057;49.984;8.404;2022-11-15T03:34:27;9.90;99.90
13970;DHT22;7057;49.984;8.404;2022-11-15T03:36:55;10.00;99.90
13970;DHT22;7057;49.984;8.404;2022-11-15T03:39:23;10.00;99.90
13970;DHT22;7057;49.984;8.404;2022-11-15T03:41:59;10.10;99.90
13970;DHT22;7057;49.984;8.404;2022-11-15T03:44:35;10.00;99.90
13970;DHT22;7057;49.984;8.404;2022-11-15T03:47:07;10.20;99.90
13970;DHT22;7057;49.984;8.404;2022-11-15T03:49:42;10.20;99.90
13970;DHT22;7057;49.984;8.404;2022-11-15T03:52:11;10.30;99.90
13970;DHT22;7057;49.984;8.404;2022-11-15T03:54:48;10.80;99.90
13970;DHT22;7057;49.984;8.404;2022-11-15T03:57:16;10.80;99.90
13970;DHT22;7057;49.984;8.404;2022-11-15T03:59:43;10.70;99.90
13970;DHT22;7057;49.984;8.404;2022-11-15T04:02:10;10.60;99.90
13970;DHT22;7057;49.984;8.404;2022-11-15T04:04:39;10.60;99.90
13970;DHT22;7057;49.984;8.404;2022-11-15T04:07:06;10.50;99.90
13970;DHT22;7057;49.984;8.404;2022-11-15T04:09:33;10.60;99.90
13970;DHT22;7057;49.984;8.404;2022-11-15T04:12:20;10.70;99.90
13970;DHT22;7057;49.984;8.404;2022-11-15T04:14:57;10.80;99.90
13970;DHT22;7057;49.984;8.404;2022-11-15T04:17:38;10.80;99.90
13970;DHT22;7057;49.984;8.404;2022-11-15T04:20:10;10.70;99.90
13970;DHT22;7057;49.984;8.404;2022-11-15T04:22:56;10.70;99.90
13970;DHT22;7057;49.984;8.404;2022-11-15T04:25:41;10.90;99.90
13970;DHT22;7057;49.984;8.404;2022-11-15T04:28:09;11.00;99.90
13970;DHT22;7057;49.984;8.404;2022-11-15T04:30:36;11.00;99.90
13970;DHT22;7057;49.984;8.404;2022-11-15T04:33:03;11.10;99.90
13970;DHT22;7057;49.984;8.404;2022-11-15T04:35:32;11.10;99.90
13970;DHT22;7057;49.984;8.404;2022-11-15T04:38:00;11.10;99.90
13970;DHT22;7057;49.984;8.404;2022-11-15T04:40:27;11.10;99.90
13970;DHT22;7057;49.984;8.404;2022-11-15T04:42:55;11.20;99.90
13970;DHT22;7057;49.984;8.404;2022-11-15T04:45:22;11.20;99.90
13970;DHT22;7057;49.984;8.404;2022-11-15T04:47:49;11.30;99.90
13970;DHT22;7057;49.984;8.404;2022-11-15T04:50:17;11.70;99.90
13970;DHT22;7057;49.984;8.404;2022-11-15T04:52:50;11.20;99.90
13970;DHT22;7057;49.984;8.404;2022-11-15T04:55:18;11.30;99.90
13970;DHT22;7057;49.984;8.404;2022-11-15T04:57:45;11.20;99.90
13970;DHT22;7057;49.984;8.404;2022-11-15T05:00:14;11.30;99.90
13970;DHT22;7057;49.984;8.404;2022-11-15T05:02:42;11.40;99.90
13970;DHT22;7057;49.984;8.404;2022-11-15T05:05:27;11.40;99.90
13970;DHT22;7057;49.984;8.404;2022-11-15T05:07:55;11.40;99.90
13970;DHT22;7057;49.984;8.404;2022-11-15T05:10:22;11.30;99.90
13970;DHT22;7057;49.984;8.404;2022-11-15T05:12:49;11.30;99.90
13970;DHT22;7057;49.984;8.404;2022-11-15T05:15:17;11.30;99.90
13970;DHT22;7057;49.984;8.404;2022-11-15T05:17:44;11.20;99.90
13970;DHT22;7057;49.984;8.404;2022-11-15T05:20:11;11.20;99.90
13970;DHT22;7057;49.984;8.404;2022-11-15T05:22:39;11.20;99.90
13970;DHT22;7057;49.984;8.404;2022-11-15T05:25:08;11.20;99.90
13970;DHT22;7057;49.984;8.404;2022-11-15T05:27:35;11.20;99.90
13970;DHT22;7057;49.984;8.404;2022-11-15T05:30:03;11.30;99.90
13970;DHT22;7057;49.984;8.404;2022-11-15T05:32:30;11.30;99.90
13970;DHT22;7057;49.984;8.404;2022-11-15T05:34:58;11.30;99.90
13970;DHT22;7057;49.984;8.404;2022-11-15T05:37:25;11.30;99.90
13970;DHT22;7057;49.984;8.404;2022-11-15T05:39:52;11.30;99.90
13970;DHT22;7057;49.984;8.404;2022-11-15T05:42:21;11.30;99.90
13970;DHT22;7057;49.984;8.404;2022-11-15T05:44:49;11.30;99.90
13970;DHT22;7057;49.984;8.404;2022-11-15T05:47:19;11.30;99.90
13970;DHT22;7057;49.984;8.404;2022-11-15T05:49:48;11.30;99.90
13970;DHT22;7057;49.984;8.404;2022-11-15T05:52:18;11.20;99.90
13970;DHT22;7057;49.984;8.404;2022-11-15T05:54:46;11.20;99.90
13970;DHT22;7057;49.984;8.404;2022-11-15T05:57:14;11.20;99.90
13970;DHT22;7057;49.984;8.404;2022-11-15T05:59:43;11.20;99.90
13970;DHT22;7057;49.984;8.404;2022-11-15T06:02:10;11.20;99.90
13970;DHT22;7057;49.984;8.404;2022-11-15T06:04:37;11.30;99.90
13970;DHT22;7057;49.984;8.404;2022-11-15T06:07:05;11.30;99.90
13970;DHT22;7057;49.984;8.404;2022-11-15T06:09:32;11.30;99.90
13970;DHT22;7057;49.984;8.404;2022-11-15T06:11:59;11.40;99.90
13970;DHT22;7057;49.984;8.404;2022-11-15T06:14:26;11.40;99.90
13970;DHT22;7057;49.984;8.404;2022-11-15T06:16:55;11.50;99.90
13970;DHT22;7057;49.984;8.404;2022-11-15T06:19:22;11.40;99.90
13970;DHT22;7057;49.984;8.404;2022-11-15T06:21:49;11.50;99.90
13970;DHT22;7057;49.984;8.404;2022-11-15T06:24:17;11.70;99.90
13970;DHT22;7057;49.984;8.404;2022-11-15T06:26:44;11.70;99.90
13970;DHT22;7057;49.984;8.404;2022-11-15T06:29:11;11.60;99.90
13970;DHT22;7057;49.984;8.404;2022-11-15T06:31:38;11.30;99.90
13970;DHT22;7057;49.984;8.404;2022-11-15T06:34:07;11.00;99.90
13970;DHT22;7057;49.984;8.404;2022-11-15T06:36:34;10.80;99.90
13970;DHT22;7057;49.984;8.404;2022-11-15T06:39:02;10.70;99.90
13970;DHT22;7057;49.984;8.404;2022-11-15T06:41:29;10.60;99.90
13970;DHT22;7057;49.984;8.404;2022-11-15T06:43:56;10.50;99.90
13970;DHT22;7057;49.984;8.404;2022-11-15T06:46:24;10.50;99.90
13970;DHT22;7057;49.984;8.404;2022-11-15T06:48:51;10.40;99.90
13970;DHT22;7057;49.984;8.404;2022-11-15T06:51:20;10.40;99.90
13970;DHT22;7057;49.984;8.404;2022-11-15T06:53:47;10.40;99.90
13970;DHT22;7057;49.984;8.404;2022-11-15T06:56:14;10.40;99.90
13970;DHT22;7057;49.984;8.404;2022-11-15T06:58:41;10.40;99.90
13970;DHT22;7057;49.984;8.404;2022-11-15T07:01:10;10.50;99.90
13970;DHT22;7057;49.984;8.404;2022-11-15T07:03:39;10.50;99.90
13970;DHT22;7057;49.984;8.404;2022-11-15T07:06:07;10.50;99.90
13970;DHT22;7057;49.984;8.404;2022-11-15T07:08:36;10.50;99.90
13970;DHT22;7057;49.984;8.404;2022-11-15T07:11:06;10.50;99.90
13970;DHT22;7057;49.984;8.404;2022-11-15T07:13:35;10.50;99.90
13970;DHT22;7057;49.984;8.404;2022-11-15T07:16:05;10.50;99.90
13970;DHT22;7057;49.984;8.404;2022-11-15T07:18:34;10.50;99.90
13970;DHT22;7057;49.984;8.404;2022-11-15T07:21:02;10.50;99.90
13970;DHT22;7057;49.984;8.404;2022-11-15T07:23:30;10.60;99.90
13970;DHT22;7057;49.984;8.404;2022-11-15T07:25:59;10.60;99.90
13970;DHT22;7057;49.984;8.404;2022-11-15T07:28:26;10.70;99.90
13970;DHT22;7057;49.984;8.404;2022-11-15T07:30:53;10.70;99.90
13970;DHT22;7057;49.984;8.404;2022-11-15T07:33:21;10.70;99.90
13970;DHT22;7057;49.984;8.404;2022-11-15T07:35:48;10.70;99.90
13970;DHT22;7057;49.984;8.404;2022-11-15T07:38:16;10.80;99.90
13970;DHT22;7057;49.984;8.404;2022-11-15T07:40:45;10.60;99.90
13970;DHT22;7057;49.984;8.404;2022-11-15T07:43:14;10.70;99.90
13970;DHT22;7057;49.984;8.404;2022-11-15T07:45:42;10.80;99.90
13970;DHT22;7057;49.984;8.404;2022-11-15T07:48:09;10.80;99.90
13970;DHT22;7057;49.984;8.404;2022-11-15T07:50:40;10.90;99.90
13970;DHT22;7057;49.984;8.404;2022-11-15T07:53:08;10.90;99.90
13970;DHT22;7057;49.984;8.404;2022-11-15T07:55:35;11.00;99.90
13970;DHT22;7057;49.984;8.404;2022-11-15T07:58:03;10.90;99.90
13970;DHT22;7057;49.984;8.404;2022-11-15T08:00:33;10.80;99.90
13970;DHT22;7057;49.984;8.404;2022-11-15T08:03:04;10.80;99.90
13970;DHT22;7057;49.984;8.404;2022-11-15T08:05:32;10.80;99.90
13970;DHT22;7057;49.984;8.404;2022-11-15T08:07:59;10.80;99.90
13970;DHT22;7057;49.984;8.404;2022-11-15T08:10:27;10.90;99.90
13970;DHT22;7057;49.984;8.404;2022-11-15T08:12:58;10.90;99.90
13970;DHT22;7057;49.984;8.404;2022-11-15T08:15:26;11.00;99.90
13970;DHT22;7057;49.984;8.404;2022-11-15T08:17:56;10.90;99.90
13970;DHT22;7057;49.984;8.404;2022-11-15T08:20:24;11.00;99.90
13970;DHT22;7057;49.984;8.404;2022-11-15T08:22:51;11.00;99.90
13970;DHT22;7057;49.984;8.404;2022-11-15T08:25:18;11.10;99.90
13970;DHT22;7057;49.984;8.404;2022-11-15T08:27:45;11.00;99.90
13970;DHT22;7057;49.984;8.404;2022-11-15T08:30:13;11.10;99.90
13970;DHT22;7057;49.984;8.404;2022-11-15T08:32:41;11.10;99.90
13970;DHT22;7057;49.984;8.404;2022-11-15T08:35:10;11.20;99.90
13970;DHT22;7057;49.984;8.404;2022-11-15T08:37:37;11.20;99.90
13970;DHT22;7057;49.984;8.404;2022-11-15T08:40:05;11.20;99.90
13970;DHT22;7057;49.984;8.404;2022-11-15T08:42:33;11.10;99.90
13970;DHT22;7057;49.984;8.404;2022-11-15T08:45:00;11.20;99.90
13970;DHT22;7057;49.984;8.404;2022-11-15T08:47:27;11.20;99.90
13970;DHT22;7057;49.984;8.404;2022-11-15T08:49:54;11.20;99.90
13970;DHT22;7057;49.984;8.404;2022-11-15T08:52:23;11.30;99.90
13970;DHT22;7057;49.984;8.404;2022-11-15T08:54:50;11.40;99.90
13970;DHT22;7057;49.984;8.404;2022-11-15T08:57:18;11.40;99.90
13970;DHT22;7057;49.984;8.404;2022-11-15T08:59:45;11.50;99.90
13970;DHT22;7057;49.984;8.404;2022-11-15T09:02:13;11.50;99.90
13970;DHT22;7057;49.984;8.404;2022-11-15T09:04:41;11.70;99.90
13970;DHT22;7057;49.984;8.404;2022-11-15T09:07:08;11.60;99.90
13970;DHT22;7057;49.984;8.404;2022-11-15T09:09:37;11.60;99.90
13970;DHT22;7057;49.984;8.404;2022-11-15T09:12:05;11.60;99.90
13970;DHT22;7057;49.984;8.404;2022-11-15T09:14:33;11.50;99.90
13970;DHT22;7057;49.984;8.404;2022-11-15T09:17:01;11.50;99.90
13970;DHT22;7057;49.984;8.404;2022-11-15T09:19:29;11.60;99.90
13970;DHT22;7057;49.984;8.404;2022-11-15T09:21:56;11.60;99.90
13970;DHT22;7057;49.984;8.404;2022-11-15T09:24:23;11.70;99.90
13970;DHT22;7057;49.984;8.404;2022-11-15T09:26:51;11.80;99.90
13970;DHT22;7057;49.984;8.404;2022-11-15T09:29:19;11.80;99.90
13970;DHT22;7057;49.984;8.404;2022-11-15T09:31:46;11.90;99.90
13970;DHT22;7057;49.984;8.404;2022-11-15T09:34:13;11.90;99.90
13970;DHT22;7057;49.984;8.404;2022-11-15T09:36:40;12.10;99.90
13970;DHT22;7057;49.984;8.404;2022-11-15T09:39:07;12.10;99.90
13970;DHT22;7057;49.984;8.404;2022-11-15T09:41:53;12.00;99.90
13970;DHT22;7057;49.984;8.404;2022-11-15T09:44:35;12.00;99.90
13970;DHT22;7057;49.984;8.404;2022-11-15T09:47:17;12.00;99.90
13970;DHT22;7057;49.984;8.404;2022-11-15T09:49:51;12.10;99.90
13970;DHT22;7057;49.984;8.404;2022-11-15T09:52:21;12.10;99.90
13970;DHT22;7057;49.984;8.404;2022-11-15T09:54:49;12.20;99.90
13970;DHT22;7057;49.984;8.404;2022-11-15T09:57:21;12.30;99.90
13970;DHT22;7057;49.984;8.404;2022-11-15T10:00:00;12.30;99.90
13970;DHT22;7057;49.984;8.404;2022-11-15T10:02:41;12.30;99.90
13970;DHT22;7057;49.984;8.404;2022-11-15T10:05:12;12.50;99.90
13970;DHT22;7057;49.984;8.404;2022-11-15T10:07:46;12.50;99.90
13970;DHT22;7057;49.984;8.404;2022-11-15T10:10:23;12.60;99.90
13970;DHT22;7057;49.984;8.404;2022-11-15T10:12:54;12.60;99.90
13970;DHT22;7057;49.984;8.404;2022-11-15T10:15:22;12.60;99.90
13970;DHT22;7057;49.984;8.404;2022-11-15T10:18:06;12.70;99.90
13970;DHT22;7057;49.984;8.404;2022-11-15T10:20:44;12.70;99.90
13970;DHT22;7057;49.984;8.404;2022-11-15T10:23:15;12.70;99.90
13970;DHT22;7057;49.984;8.404;2022-11-15T10:25:43;12.70;99.90
13970;DHT22;7057;49.984;8.404;2022-11-15T10:28:15;12.80;99.90
13970;DHT22;7057;49.984;8.404;2022-11-15T10:30:45;12.80;99.90
13970;DHT22;7057;49.984;8.404;2022-11-15T10:33:25;12.80;99.90
13970;DHT22;7057;49.984;8.404;2022-11-15T10:36:20;12.70;99.90
13970;DHT22;7057;49.984;8.404;2022-11-15T10:38:56;12.70;99.90
13970;DHT22;7057;49.984;8.404;2022-11-15T10:41:31;12.70;99.90
13970;DHT22;7057;49.984;8.404;2022-11-15T10:44:20;12.70;99.90
13970;DHT22;7057;49.984;8.404;2022-11-15T10:47:03;12.90;99.90
13970;DHT22;7057;49.984;8.404;2022-11-15T10:49:31;12.90;99.90
13970;DHT22;7057;49.984;8.404;2022-11-15T10:52:01;12.80;99.90
13970;DHT22;7057;49.984;8.404;2022-11-15T10:54:34;12.90;99.90
13970;DHT22;7057;49.984;8.404;2022-11-15T10:57:15;12.90;99.90
13970;DHT22;7057;49.984;8.404;2022-11-15T10:59:46;13.00;99.90
13970;DHT22;7057;49.984;8.404;2022-11-15T11:02:32;13.10;99.90
13970;DHT22;7057;49.984;8.404;2022-11-15T11:05:00;13.10;99.90
13970;DHT22;7057;49.984;8.404;2022-11-15T11:07:30;13.10;99.90
13970;DHT22;7057;49.984;8.404;2022-11-15T11:10:00;13.20;99.90
13970;DHT22;7057;49.984;8.404;2022-11-15T11:12:30;13.20;99.90
13970;DHT22;7057;49.984;8.404;2022-11-15T11:15:01;13.30;99.90
13970;DHT22;7057;49.984;8.404;2022-11-15T11:17:37;13.40;99.90
13970;DHT22;7057;49.984;8.404;2022-11-15T11:20:10;13.40;99.90
13970;DHT22;7057;49.984;8.404;2022-11-15T11:22:54;13.40;99.90
13970;DHT22;7057;49.984;8.404;2022-11-15T11:25:30;13.40;99.90
13970;DHT22;7057;49.984;8.404;2022-11-15T11:28:12;13.50;99.90
13970;DHT22;7057;49.984;8.404;2022-11-15T11:30:49;13.50;99.90
13970;DHT22;7057;49.984;8.404;2022-11-15T11:33:23;13.60;99.90
13970;DHT22;7057;49.984;8.404;2022-11-15T11:36:03;13.60;99.90
13970;DHT22;7057;49.984;8.404;2022-11-15T11:38:48;13.50;99.90
13970;DHT22;7057;49.984;8.404;2022-11-15T11:41:35;13.50;99.90
13970;DHT22;7057;49.984;8.404;2022-11-15T11:44:15;13.60;99.90
13970;DHT22;7057;49.984;8.404;2022-11-15T11:46:54;13.60;99.90
13970;DHT22;7057;49.984;8.404;2022-11-15T11:49:26;13.50;99.90
13970;DHT22;7057;49.984;8.404;2022-11-15T11:52:01;13.50;99.90
13970;DHT22;7057;49.984;8.404;2022-11-15T11:54:34;13.50;99.90
13970;DHT22;7057;49.984;8.404;2022-11-15T11:57:07;13.50;99.90
13970;DHT22;7057;49.984;8.404;2022-11-15T11:59:42;13.30;99.90
13970;DHT22;7057;49.984;8.404;2022-11-15T12:02:18;13.40;99.90
13970;DHT22;7057;49.984;8.404;2022-11-15T12:04:50;13.40;99.90
13970;DHT22;7057;49.984;8.404;2022-11-15T12:07:23;13.50;99.90
13970;DHT22;7057;49.984;8.404;2022-11-15T12:09:55;13.50;99.90
13970;DHT22;7057;49.984;8.404;2022-11-15T12:12:29;13.40;99.90
13970;DHT22;7057;49.984;8.404;2022-11-15T12:15:00;13.30;99.90
13970;DHT22;7057;49.984;8.404;2022-11-15T12:17:32;13.40;99.90
13970;DHT22;7057;49.984;8.404;2022-11-15T12:20:00;13.30;99.90
13970;DHT22;7057;49.984;8.404;2022-11-15T12:22:37;13.20;99.90
13970;DHT22;7057;49.984;8.404;2022-11-15T12:25:08;13.30;99.90
13970;DHT22;7057;49.984;8.404;2022-11-15T12:27:44;13.30;99.90
13970;DHT22;7057;49.984;8.404;2022-11-15T12:30:15;13.30;99.90
13970;DHT22;7057;49.984;8.404;2022-11-15T12:32:52;13.30;99.90
13970;DHT22;7057;49.984;8.404;2022-11-15T12:35:24;13.30;99.90
13970;DHT22;7057;49.984;8.404;2022-11-15T12:37:52;13.40;99.90
13970;DHT22;7057;49.984;8.404;2022-11-15T12:40:33;13.40;99.90
13970;DHT22;7057;49.984;8.404;2022-11-15T12:45:45;13.30;99.90
13970;DHT22;7057;49.984;8.404;2022-11-15T12:54:59;13.50;99.90
13970;DHT22;7057;49.984;8.404;2022-11-15T12:57:41;13.60;99.90
13970;DHT22;7057;49.984;8.404;2022-11-15T13:00:43;13.60;99.90
13970;DHT22;7057;49.984;8.404;2022-11-15T13:03:25;13.70;99.90
13970;DHT22;7057;49.984;8.404;2022-11-15T13:06:07;13.80;99.90
13970;DHT22;7057;49.984;8.404;2022-11-15T13:08:44;13.70;99.90
13970;DHT22;7057;49.984;8.404;2022-11-15T13:11:44;13.80;99.90
13970;DHT22;7057;49.984;8.404;2022-11-15T13:14:44;13.90;99.90
13970;DHT22;7057;49.984;8.404;2022-11-15T13:17:29;14.00;99.90
13970;DHT22;7057;49.984;8.404;2022-11-15T13:20:16;14.00;99.90
13970;DHT22;7057;49.984;8.404;2022-11-15T13:22:45;14.00;99.90
13970;DHT22;7057;49.984;8.404;2022-11-15T13:28:21;14.00;99.90
13970;DHT22;7057;49.984;8.404;2022-11-15T13:30:51;14.00;99.90
13970;DHT22;7057;49.984;8.404;2022-11-15T13:33:21;14.00;99.90
13970;DHT22;7057;49.984;8.404;2022-11-15T13:35:50;14.00;99.90
13970;DHT22;7057;49.984;8.404;2022-11-15T13:38:26;14.00;99.90
13970;DHT22;7057;49.984;8.404;2022-11-15T13:40:54;13.90;99.90
13970;DHT22;7057;49.984;8.404;2022-11-15T13:43:31;14.00;99.90
13970;DHT22;7057;49.984;8.404;2022-11-15T13:46:06;13.90;99.90
13970;DHT22;7057;49.984;8.404;2022-11-15T13:48:33;14.00;99.90
13970;DHT22;7057;49.984;8.404;2022-11-15T13:51:01;14.10;99.90
13970;DHT22;7057;49.984;8.404;2022-11-15T13:53:31;14.10;99.90
13970;DHT22;7057;49.984;8.404;2022-11-15T13:55:59;14.10;99.90
13970;DHT22;7057;49.984;8.404;2022-11-15T13:58:28;14.10;99.90
13970;DHT22;7057;49.984;8.404;2022-11-15T14:01:00;14.10;99.90
13970;DHT22;7057;49.984;8.404;2022-11-15T14:03:30;14.10;99.90
13970;DHT22;7057;49.984;8.404;2022-11-15T14:06:05;14.10;99.90
13970;DHT22;7057;49.984;8.404;2022-11-15T14:08:38;14.10;99.90
13970;DHT22;7057;49.984;8.404;2022-11-15T14:11:08;14.00;99.90
13970;DHT22;7057;49.984;8.404;2022-11-15T14:13:37;14.00;99.90
13970;DHT22;7057;49.984;8.404;2022-11-15T14:16:16;13.90;99.90
13970;DHT22;7057;49.984;8.404;2022-11-15T14:18:46;13.80;99.90
13970;DHT22;7057;49.984;8.404;2022-11-15T14:21:13;13.80;99.90
13970;DHT22;7057;49.984;8.404;2022-11-15T14:23:41;13.80;99.90
13970;DHT22;7057;49.984;8.404;2022-11-15T14:26:26;13.80;99.90
13970;DHT22;7057;49.984;8.404;2022-11-15T14:28:55;13.70;99.90
13970;DHT22;7057;49.984;8.404;2022-11-15T14:31:22;13.70;99.90
13970;DHT22;7057;49.984;8.404;2022-11-15T14:33:50;13.70;99.90
13970;DHT22;7057;49.984;8.404;2022-11-15T14:36:19;13.70;99.90
13970;DHT22;7057;49.984;8.404;2022-11-15T14:38:46;13.70;99.90
13970;DHT22;7057;49.984;8.404;2022-11-15T14:41:22;13.70;99.90
13970;DHT22;7057;49.984;8.404;2022-11-15T14:43:50;13.70;99.90
13970;DHT22;7057;49.984;8.404;2022-11-15T14:46:19;13.70;99.90
13970;DHT22;7057;49.984;8.404;2022-11-15T14:48:46;13.60;99.90
13970;DHT22;7057;49.984;8.404;2022-11-15T14:51:15;13.60;99.90
13970;DHT22;7057;49.984;8.404;2022-11-15T14:53:44;13.50;99.90
13970;DHT22;7057;49.984;8.404;2022-11-15T14:56:12;13.50;99.90
13970;DHT22;7057;49.984;8.404;2022-11-15T14:58:39;13.50;99.90
13970;DHT22;7057;49.984;8.404;2022-11-15T15:01:13;13.50;99.90
13970;DHT22;7057;49.984;8.404;2022-11-15T15:03:41;13.50;99.90
13970;DHT22;7057;49.984;8.404;2022-11-15T15:06:10;13.40;99.90
13970;DHT22;7057;49.984;8.404;2022-11-15T15:08:38;13.40;99.90
13970;DHT22;7057;49.984;8.404;2022-11-15T15:11:10;13.40;99.90
13970;DHT22;7057;49.984;8.404;2022-11-15T15:13:40;13.40;99.90
13970;DHT22;7057;49.984;8.404;2022-11-15T15:16:07;13.40;99.90
13970;DHT22;7057;49.984;8.404;2022-11-15T15:18:34;13.40;99.90
13970;DHT22;7057;49.984;8.404;2022-11-15T15:21:04;13.30;99.90
13970;DHT22;7057;49.984;8.404;2022-11-15T15:23:39;13.30;99.90
13970;DHT22;7057;49.984;8.404;2022-11-15T15:26:07;13.30;99.90
13970;DHT22;7057;49.984;8.404;2022-11-15T15:28:34;13.20;99.90
13970;DHT22;7057;49.984;8.404;2022-11-15T15:31:02;13.20;99.90
13970;DHT22;7057;49.984;8.404;2022-11-15T15:33:30;13.10;99.90
13970;DHT22;7057;49.984;8.404;2022-11-15T15:35:57;13.10;99.90
13970;DHT22;7057;49.984;8.404;2022-11-15T15:38:26;13.00;99.90
13970;DHT22;7057;49.984;8.404;2022-11-15T15:40:53;13.00;99.90
13970;DHT22;7057;49.984;8.404;2022-11-15T15:43:21;13.00;99.90
13970;DHT22;7057;49.984;8.404;2022-11-15T15:45:48;13.00;99.90
13970;DHT22;7057;49.984;8.404;2022-11-15T15:48:16;13.00;99.90
13970;DHT22;7057;49.984;8.404;2022-11-15T15:50:44;12.90;99.90
13970;DHT22;7057;49.984;8.404;2022-11-15T15:53:12;13.10;99.90
13970;DHT22;7057;49.984;8.404;2022-11-15T15:55:41;13.50;99.90
13970;DHT22;7057;49.984;8.404;2022-11-15T15:58:08;13.70;99.90
13970;DHT22;7057;49.984;8.404;2022-11-15T16:00:36;13.80;99.90
13970;DHT22;7057;49.984;8.404;2022-11-15T16:03:03;13.80;99.90
13970;DHT22;7057;49.984;8.404;2022-11-15T16:05:30;13.80;99.90
13970;DHT22;7057;49.984;8.404;2022-11-15T16:07:58;13.80;99.90
13970;DHT22;7057;49.984;8.404;2022-11-15T16:10:26;13.80;99.90
13970;DHT22;7057;49.984;8.404;2022-11-15T16:12:56;13.70;99.90
13970;DHT22;7057;49.984;8.404;2022-11-15T16:15:25;13.70;99.90
13970;DHT22;7057;49.984;8.404;2022-11-15T16:17:54;13.70;99.90
13970;DHT22;7057;49.984;8.404;2022-11-15T16:20:29;13.70;99.90
13970;DHT22;7057;49.984;8.404;2022-11-15T16:22:56;13.70;99.90
13970;DHT22;7057;49.984;8.404;2022-11-15T16:25:24;13.70;99.90
13970;DHT22;7057;49.984;8.404;2022-11-15T16:27:51;13.70;99.90
13970;DHT22;7057;49.984;8.404;2022-11-15T16:30:21;13.70;99.90